Fountain Green, UT (84632)

4:58 AM MDT on May 06, 2015 (GMT -0600)
MesoWest | | Change Station
CLOSE
Current Station
Personal Weather Station
Location: Mount Pleasant, UT
Elevation: 9330 ft
Nearby Weather Stations

Elev 9330 ft 39.64 °N, 111.33 °W | Updated 58 minutes ago

Rain
Rain
35 °F
Feels Like 32 °F
N
4
Wind Variable Wind from SW
Gusts 10.0 mph

Today
High -- | Low -- °F
--% Chance of Precip.
Yesterday
High -- | Low -- °F
Precip. -- in
6:21 AM 8:25 PM
Waning Gibbous, 94% visible
Pressure 29.77 in
Visibility 10.0 miles
Clouds Few 5000 ft
Scattered Clouds 9000 ft
Windchill 32 °F
Dew Point 35 °F
Humidity 100%
Rainfall in
Snow Depth Not available.
UV 0 out of 12
Pollen 7.70 out of 12
Air Quality Not available.
Flu Activity Regional
METAR KPUC 061053Z AUTO 36005KT 10SM FEW050 SCT090 08/04 A2983 RMK AO2 SLP079 T00780039

More Conditions Fewer Conditions

Pressure 29.77 in
Visibility 10.0 miles
Clouds Few 5000 ft
Scattered Clouds 9000 ft
Windchill 32 °F
Dew Point 35 °F
Humidity 100%
Rainfall in
Snow Depth Not available.
UV 0 out of 12
Pollen 7.70 out of 12
Air Quality Not available.
Flu Activity Regional
METAR KPUC 061053Z AUTO 36005KT 10SM FEW050 SCT090 08/04 A2983 RMK AO2 SLP079 T00780039

More Conditions Fewer Conditions

10-Day Weather Forecast

Almanac

Astronomy

May. 06, 2015 Rise Set
Actual Time
Civil Twilight
Nautical Twilight
Astronomical Twilight
Moon
Length of Visible Light
Length of Day
Tomorrow will be .
, % of the Moon is Illuminated

Today's Extremes

State Highs State Lows

Community

WunderPhotos

Upload Photos

1,818,859 photos uploaded!

WunderBlogs® & News

Nearby

Air Quality

  Air Quality AQ Index Pollutant
Not available.

Snow Depth

Station Depth Elevation

Earthquake Activity

City Distance Mag. Time & Date
Minimum magnitude displayed is 2.5.

Coastal Water Temperatures

Place Temperature

Stations

Nearby Weather Stations

Station Location Temp. Windchill Dew Point Humidity Wind Precip. Elev Updated Type